Time;durP1;ratioP1;P1;durP2;ratioP2;P2;SDS_P1;SDS_P2;PMS_P1;PMS_P2;Temp;Humidity;BMP_temperature;BMP_pressure;BME280_temperature;BME280_humidity;BME280_pressure;Samples;Min_cycle;Max_cycle;Signal;HPM_P1;HPM_P2
2022/04/16 00:00:08;;;;;;;15.32;7.72;;;;;;;6.62;85.67;101569.16;5081694;28;20081;-79
2022/04/16 00:02:33;;;;;;;18.40;7.43;;;;;;;6.67;85.62;101566.84;5088585;28;20029;-80
2022/04/16 00:04:58;;;;;;;15.73;7.77;;;;;;;6.76;84.73;101567.81;5083481;28;20041;-79
2022/04/16 00:07:24;;;;;;;17.60;8.67;;;;;;;6.78;84.77;101568.50;5059646;28;20036;-79
2022/04/16 00:09:49;;;;;;;16.08;8.80;;;;;;;6.70;85.06;101568.41;5077624;28;20421;-78
2022/04/16 00:12:14;;;;;;;17.48;8.82;;;;;;;6.82;84.58;101559.13;5077320;28;20041;-78
2022/04/16 00:14:40;;;;;;;15.67;7.47;;;;;;;6.85;84.81;101562.34;5077003;28;20024;-79
2022/04/16 00:17:06;;;;;;;13.80;7.33;;;;;;;6.97;84.41;101563.00;5077528;28;20078;-79
2022/04/16 00:19:32;;;;;;;16.17;7.93;;;;;;;6.86;84.79;101564.03;5076799;28;20092;-79
2022/04/16 00:21:59;;;;;;;16.63;7.50;;;;;;;6.83;84.94;101560.81;5058765;28;20052;-78
2022/04/16 00:24:28;;;;;;;15.65;7.25;;;;;;;6.83;85.10;101555.47;5076360;28;20368;-78
2022/04/16 00:26:53;;;;;;;20.15;8.07;;;;;;;6.76;84.64;101554.41;5075979;28;20027;-78
2022/04/16 00:29:19;;;;;;;16.13;6.73;;;;;;;6.81;85.25;101562.81;5076455;28;20510;-78
2022/04/16 00:31:47;;;;;;;15.40;7.77;;;;;;;6.81;84.82;101552.94;5076182;28;20028;-78
2022/04/16 00:34:14;;;;;;;16.02;7.22;;;;;;;6.69;84.59;101554.16;5075955;28;20266;-78
2022/04/16 00:36:44;;;;;;;15.05;7.18;;;;;;;6.67;84.91;101549.94;5057790;28;20036;-78
2022/04/16 00:39:10;;;;;;;14.10;8.23;;;;;;;6.59;85.47;101559.59;5058466;28;20383;-79
2022/04/16 00:41:35;;;;;;;13.27;7.57;;;;;;;6.66;85.34;101557.13;5076028;28;20033;-79
2022/04/16 00:44:00;;;;;;;13.93;7.50;;;;;;;6.65;85.52;101562.63;5076773;28;20471;-79
2022/04/16 00:46:26;;;;;;;15.50;6.90;;;;;;;6.67;85.82;101556.16;5076308;28;20593;-79
2022/04/16 00:48:51;;;;;;;15.68;7.95;;;;;;;6.62;86.00;101555.78;5076365;28;20033;-79
2022/04/16 00:51:17;;;;;;;15.30;7.03;;;;;;;6.59;85.72;101551.56;5076713;28;20451;-79
2022/04/16 00:53:43;;;;;;;16.33;7.88;;;;;;;6.56;86.25;101559.91;5075872;28;20108;-79
2022/04/16 00:56:11;;;;;;;16.05;6.65;;;;;;;6.53;85.89;101560.19;5076001;28;20410;-78
2022/04/16 00:58:38;;;;;;;17.02;8.25;;;;;;;6.56;86.02;101553.69;5075365;28;20029;-78
2022/04/16 01:01:04;;;;;;;14.05;6.63;;;;;;;6.59;85.58;101554.25;5075671;28;20379;-78
2022/04/16 01:03:29;;;;;;;16.50;7.43;;;;;;;6.52;85.93;101554.97;5076122;28;20028;-79
2022/04/16 01:05:55;;;;;;;15.35;7.45;;;;;;;6.63;85.49;101553.94;5059087;28;20267;-79
2022/04/16 01:08:22;;;;;;;16.27;7.57;;;;;;;6.69;85.55;101556.00;5076585;28;20037;-79
2022/04/16 01:10:47;;;;;;;12.80;6.53;;;;;;;6.75;85.59;101563.44;5076219;28;20398;-80
2022/04/16 01:13:13;;;;;;;17.65;8.15;;;;;;;6.61;85.83;101554.09;5076537;28;20032;-79
2022/04/16 01:15:39;;;;;;;15.37;7.00;;;;;;;6.68;85.95;101555.16;5081606;28;20055;-78
2022/04/16 01:18:05;;;;;;;15.05;7.60;;;;;;;6.58;85.97;101562.44;5083633;28;20024;-78
2022/04/16 01:20:33;;;;;;;15.55;7.78;;;;;;;6.56;85.73;101565.25;5083504;28;20046;-78
2022/04/16 01:22:59;;;;;;;18.38;7.30;;;;;;;6.49;86.65;101563.31;5066103;28;20039;-78
2022/04/16 01:25:27;;;;;;;16.20;7.50;;;;;;;6.53;86.52;101560.19;5083595;28;20044;-78
2022/04/16 01:27:52;;;;;;;15.57;7.45;;;;;;;6.48;86.22;101561.63;5083224;28;20020;-78
2022/04/16 01:30:19;;;;;;;14.38;7.18;;;;;;;6.52;85.80;101563.88;5076861;28;20032;-78
2022/04/16 01:32:46;;;;;;;12.80;7.10;;;;;;;6.59;85.99;101564.13;5075679;28;20064;-78
2022/04/16 01:35:11;;;;;;;16.85;7.30;;;;;;;6.52;86.51;101563.88;5075504;28;20390;-78
2022/04/16 01:37:37;;;;;;;18.03;8.40;;;;;;;6.46;86.61;101571.63;5075396;28;20108;-78
2022/04/16 01:40:05;;;;;;;17.55;7.68;;;;;;;6.43;87.11;101572.81;5074871;28;20039;-79
2022/04/16 01:42:32;;;;;;;16.50;8.35;;;;;;;6.59;86.68;101564.94;5074915;28;20488;-78
2022/04/16 01:45:10;;;;;;;16.50;7.75;;;;;;;6.48;86.77;101573.19;5057373;28;20063;-78
2022/04/16 01:47:38;;;;;;;20.92;8.10;;;;;;;6.49;86.85;101561.47;5075282;28;20043;-78
2022/04/16 01:50:05;;;;;;;14.35;7.18;;;;;;;6.60;86.24;101574.69;5057094;28;20506;-78
2022/04/16 01:52:32;;;;;;;18.80;8.80;;;;;;;6.45;86.77;101569.97;5074927;28;20024;-79
2022/04/16 01:54:58;;;;;;;16.45;7.85;;;;;;;6.36;86.72;101569.03;5057099;28;20028;-78
2022/04/16 01:57:23;;;;;;;16.33;7.80;;;;;;;6.34;87.00;101568.34;5074598;28;20037;-78
2022/04/16 01:59:49;;;;;;;15.87;7.40;;;;;;;6.43;87.18;101570.13;5074790;28;20123;-80
2022/04/16 02:02:15;;;;;;;17.60;7.47;;;;;;;6.35;87.52;101577.22;5074565;28;20120;-78
2022/04/16 02:04:41;;;;;;;19.08;8.82;;;;;;;6.28;87.20;101571.59;5057629;28;20463;-78
2022/04/16 02:07:07;;;;;;;17.05;7.95;;;;;;;6.24;87.99;101573.75;5078682;28;20111;-78
2022/04/16 02:09:32;;;;;;;15.23;7.13;;;;;;;6.30;87.66;101579.47;5079015;28;20043;-78
2022/04/16 02:11:58;;;;;;;21.57;8.40;;;;;;;6.31;87.65;101582.00;5078774;28;20071;-78
2022/04/16 02:14:23;;;;;;;20.02;8.10;;;;;;;6.43;87.79;101585.34;5078118;28;20259;-78
2022/04/16 02:16:49;;;;;;;19.20;8.60;;;;;;;6.37;87.16;101588.63;5078964;28;20084;-78
2022/04/16 02:19:14;;;;;;;14.35;7.75;;;;;;;6.32;87.08;101591.72;5060922;28;20515;-79
2022/04/16 02:21:41;;;;;;;17.45;7.93;;;;;;;6.33;87.74;101596.09;5078370;28;20032;-78
2022/04/16 02:24:06;;;;;;;17.50;7.82;;;;;;;6.22;87.64;101585.59;5078418;28;20029;-78
2022/04/16 02:26:32;;;;;;;17.88;8.05;;;;;;;6.24;87.90;101597.84;5078455;28;20035;-79
2022/04/16 02:28:58;;;;;;;19.08;9.02;;;;;;;6.21;88.12;101599.97;5078282;28;20039;-78
2022/04/16 02:31:25;;;;;;;17.33;8.32;;;;;;;6.31;87.52;101603.44;5078856;28;20031;-78
2022/04/16 02:33:50;;;;;;;19.45;8.57;;;;;;;6.32;87.46;101601.59;5078054;28;20067;-78
2022/04/16 02:36:16;;;;;;;22.80;8.60;;;;;;;6.21;88.04;101598.13;5078313;28;20089;-79
2022/04/16 02:38:41;;;;;;;17.63;8.52;;;;;;;6.28;87.68;101603.72;5078427;28;20032;-79
2022/04/16 02:41:07;;;;;;;17.98;8.48;;;;;;;6.11;88.68;101610.69;5078415;28;20429;-80
2022/04/16 02:43:32;;;;;;;16.25;8.63;;;;;;;6.17;87.87;101607.44;5078139;28;20059;-79
2022/04/16 02:48:41;;;;;;;20.67;8.80;;;;;;;6.07;88.90;101609.31;5077626;28;20250;-78
2022/04/16 02:51:07;;;;;;;21.57;8.87;;;;;;;6.13;88.74;101613.22;5078015;28;20115;-78
2022/04/16 02:53:33;;;;;;;17.17;8.50;;;;;;;6.17;88.67;101619.97;5060488;28;20071;-78
2022/04/16 02:55:58;;;;;;;18.63;8.55;;;;;;;6.25;88.66;101610.25;5078217;28;20032;-78
2022/04/16 02:58:24;;;;;;;19.92;8.50;;;;;;;6.24;88.02;101615.75;5078022;28;20455;-78
2022/04/16 03:00:49;;;;;;;19.33;8.93;;;;;;;6.31;88.09;101624.00;5077768;28;20028;-78
2022/04/16 03:03:15;;;;;;;17.97;8.83;;;;;;;6.33;87.87;101625.53;5078265;28;20028;-78
2022/04/16 03:05:41;;;;;;;17.40;8.98;;;;;;;6.32;87.85;101620.34;5077433;28;20025;-78
2022/04/16 03:08:09;;;;;;;17.73;8.15;;;;;;;6.31;88.37;101618.66;5077584;28;20090;-78
2022/04/16 03:10:35;;;;;;;18.27;8.05;;;;;;;6.36;87.35;101621.72;5077270;28;20033;-78
2022/04/16 03:13:00;;;;;;;20.88;8.57;;;;;;;6.29;88.13;101621.47;5077668;28;20044;-78
2022/04/16 03:18:12;;;;;;;19.85;8.48;;;;;;;6.37;88.10;101621.59;5077012;28;20075;-78
2022/04/16 03:20:38;;;;;;;19.20;8.57;;;;;;;6.40;87.66;101623.97;5059148;28;20064;-78
2022/04/16 03:23:04;;;;;;;17.45;7.90;;;;;;;6.42;87.90;101627.34;5077873;28;20531;-78
2022/04/16 03:25:30;;;;;;;19.23;8.73;;;;;;;6.32;88.50;101623.00;5059493;28;20056;-78
2022/04/16 03:27:56;;;;;;;18.45;8.25;;;;;;;6.51;87.94;101634.47;5078449;28;20082;-78
2022/04/16 03:30:23;;;;;;;;;;;;;;;6.44;88.03;101625.38;5079214;28;20111;-78
2022/04/16 03:32:49;;;;;;;21.27;8.70;;;;;;;6.27;88.03;101626.97;5077358;28;19934;-78
2022/04/16 03:35:17;;;;;;;20.95;9.32;;;;;;;6.23;88.46;101625.59;5077368;28;20067;-78
2022/04/16 03:37:42;;;;;;;20.60;9.23;;;;;;;6.18;88.53;101627.03;5077274;28;20041;-78
2022/04/16 03:40:08;;;;;;;21.57;10.07;;;;;;;6.22;88.39;101631.09;5076590;28;20037;-78
2022/04/16 03:42:33;;;;;;;22.90;9.15;;;;;;;6.22;89.24;101629.25;5076612;28;20029;-79
2022/04/16 03:45:03;;;;;;;21.93;8.97;;;;;;;6.17;88.50;101631.53;5076569;28;20037;-78
2022/04/16 03:47:28;;;;;;;20.10;9.52;;;;;;;6.19;89.22;101629.56;5077042;28;20043;-78
2022/04/16 03:49:56;;;;;;;20.57;8.50;;;;;;;6.43;87.88;101638.91;5076724;28;20459;-78
2022/04/16 03:52:22;;;;;;;23.55;9.55;;;;;;;6.31;88.34;101630.19;5076510;28;20265;-79
2022/04/16 04:00:17;;;;;;;20.35;8.75;;;;;;;6.41;88.50;101644.41;5076184;28;20044;-78
2022/04/16 04:02:42;;;;;;;21.65;9.45;;;;;;;6.42;88.46;101653.28;5076724;28;20032;-78
2022/04/16 04:05:08;;;;;;;21.42;10.20;;;;;;;6.42;88.40;101648.75;5076323;28;20039;-79
2022/04/16 04:07:34;;;;;;;19.75;8.75;;;;;;;6.50;87.67;101645.31;5076727;28;20039;-79
2022/04/16 04:09:59;;;;;;;21.60;8.30;;;;;;;6.69;87.85;101641.69;5076389;28;20083;-78
2022/04/16 04:12:24;;;;;;;26.17;9.45;;;;;;;6.67;86.95;101655.25;5076578;28;20506;-78
2022/04/16 04:14:50;;;;;;;18.30;8.13;;;;;;;6.51;87.50;101650.53;5076331;28;20069;-78
2022/04/16 04:17:15;;;;;;;20.90;10.10;;;;;;;6.49;88.62;101652.50;5076163;28;20037;-78
2022/04/16 04:19:42;;;;;;;25.17;10.48;;;;;;;6.42;88.29;101656.78;5058467;28;20032;-78
2022/04/16 04:22:10;;;;;;;19.90;10.23;;;;;;;6.52;88.59;101648.69;5076348;28;20037;-78
2022/04/16 04:24:37;;;;;;;22.25;10.18;;;;;;;6.39;88.32;101653.56;5075787;28;20020;-78
2022/04/16 04:27:03;;;;;;;21.27;10.38;;;;;;;6.31;88.93;101654.28;5076228;28;20024;-78
2022/04/16 04:29:28;;;;;;;30.55;9.77;;;;;;;6.33;88.71;101657.66;5075833;28;20540;-78
2022/04/16 04:31:54;;;;;;;23.75;9.88;;;;;;;6.40;88.21;101663.28;5075690;28;20037;-78
2022/04/16 04:34:20;;;;;;;23.83;9.43;;;;;;;6.39;89.03;101670.47;5076488;28;20465;-78
2022/04/16 04:36:45;;;;;;;23.52;10.05;;;;;;;6.21;88.56;101666.88;5075836;28;20054;-78
2022/04/16 04:39:12;;;;;;;22.60;9.25;;;;;;;6.08;89.41;101667.22;5076262;28;20036;-78
2022/04/16 04:41:38;;;;;;;21.20;9.73;;;;;;;6.26;89.41;101676.16;5075822;28;20032;-77
2022/04/16 04:44:04;;;;;;;21.17;9.55;;;;;;;6.15;89.24;101675.47;5075719;28;20037;-78
2022/04/16 04:46:29;;;;;;;23.90;8.93;;;;;;;6.07;89.50;101678.91;5075341;28;20069;-78
2022/04/16 04:48:55;;;;;;;23.83;11.10;;;;;;;5.99;90.36;101685.94;5075477;28;20486;-78
2022/04/16 04:51:20;;;;;;;19.80;8.90;;;;;;;6.00;89.98;101691.16;5075671;28;20056;-78
2022/04/16 04:53:46;;;;;;;21.13;10.00;;;;;;;6.16;90.37;101695.91;5076511;28;20044;-78
2022/04/16 04:56:12;;;;;;;25.13;11.02;;;;;;;6.12;89.92;101697.16;5075677;28;20484;-78
2022/04/16 04:58:37;;;;;;;24.10;9.73;;;;;;;6.07;90.06;101702.13;5058091;28;20029;-78
2022/04/16 05:01:04;;;;;;;22.30;9.80;;;;;;;6.21;89.46;101704.34;5076229;28;20036;-78
2022/04/16 05:03:29;;;;;;;25.58;11.32;;;;;;;6.13;89.66;101693.50;5075724;28;20032;-78
2022/04/16 05:05:54;;;;;;;25.73;9.40;;;;;;;6.13;90.49;101697.03;5075127;28;20033;-78
2022/04/16 05:08:20;;;;;;;20.93;9.80;;;;;;;6.15;90.18;101705.75;5075644;28;20032;-78
2022/04/16 05:10:45;;;;;;;29.33;11.23;;;;;;;6.25;89.72;101717.31;5075602;28;20451;-79
2022/04/16 05:13:10;;;;;;;23.97;10.10;;;;;;;6.23;90.40;101713.91;5057210;28;20079;-78
2022/04/16 05:15:35;;;;;;;24.40;10.33;;;;;;;6.20;90.27;101722.22;5075316;28;20133;-78
2022/04/16 05:18:01;;;;;;;24.70;10.57;;;;;;;6.17;90.89;101727.03;5075012;28;20463;-78
2022/04/16 05:20:26;;;;;;;21.70;10.13;;;;;;;6.25;90.23;101721.81;5057582;28;20036;-78
2022/04/16 05:22:51;;;;;;;23.73;10.37;;;;;;;6.24;90.59;101728.16;5075557;28;20258;-78
2022/04/16 05:25:17;;;;;;;24.80;10.30;;;;;;;6.24;90.96;101720.97;5075581;28;20032;-79
2022/04/16 05:27:46;;;;;;;27.17;11.52;;;;;;;6.34;90.65;101723.59;5075351;28;20371;-79
2022/04/16 05:30:22;;;;;;;23.73;10.80;;;;;;;6.42;90.30;101718.38;5076890;28;20116;-80
2022/04/16 05:32:49;;;;;;;29.25;12.18;;;;;;;6.50;90.42;101731.00;5075946;28;20107;-78
2022/04/16 05:35:15;;;;;;;27.35;10.63;;;;;;;6.52;89.76;101724.53;5076759;28;20029;-80
2022/04/16 05:37:40;;;;;;;23.47;11.43;;;;;;;6.51;89.87;101733.53;5076796;28;20043;-78
2022/04/16 05:40:06;;;;;;;27.50;11.97;;;;;;;6.52;90.50;101729.88;5076148;28;20040;-79
2022/04/16 05:42:32;;;;;;;28.40;11.35;;;;;;;6.58;90.12;101739.16;5073879;28;20047;-77
2022/04/16 05:45:01;;;;;;;25.87;10.37;;;;;;;6.90;89.26;101746.78;5078484;28;20443;-79
2022/04/16 05:47:27;;;;;;;31.95;13.93;;;;;;;6.85;88.84;101741.00;5078971;28;20043;-78
2022/04/16 05:49:52;;;;;;;31.17;12.07;;;;;;;6.86;88.15;101737.34;5079644;28;20024;-78
2022/04/16 05:52:18;;;;;;;26.07;11.37;;;;;;;6.69;88.83;101757.72;5065384;28;20030;-78
2022/04/16 05:54:44;;;;;;;26.75;12.30;;;;;;;6.74;88.98;101744.75;5083908;28;20254;-78
2022/04/16 05:57:10;;;;;;;30.88;12.20;;;;;;;6.87;88.52;101745.22;5084071;28;20071;-78
2022/04/16 05:59:35;;;;;;;26.35;11.10;;;;;;;6.82;88.98;101746.66;5083785;28;20234;-78
2022/04/16 06:02:01;;;;;;;27.67;12.02;;;;;;;7.01;88.40;101754.59;5080686;28;20032;-79
2022/04/16 06:04:26;;;;;;;24.38;10.57;;;;;;;6.91;87.65;101760.03;5062349;28;20074;-78
2022/04/16 06:06:51;;;;;;;27.07;11.57;;;;;;;6.97;88.08;101766.63;5060299;28;20113;-78
2022/04/16 06:09:17;;;;;;;29.57;11.73;;;;;;;7.05;87.67;101764.03;5077237;28;20028;-78
2022/04/16 06:11:43;;;;;;;32.05;12.50;;;;;;;7.05;88.22;101773.91;5076633;28;20297;-78
2022/04/16 06:14:09;;;;;;;24.73;10.70;;;;;;;7.02;87.62;101771.53;5076862;28;20055;-78
2022/04/16 06:16:34;;;;;;;24.02;9.77;;;;;;;7.10;87.95;101774.31;5060180;28;20535;-79
2022/04/16 06:19:00;;;;;;;28.70;10.60;;;;;;;7.01;87.60;101770.69;5086645;28;20092;-78
2022/04/16 06:21:25;;;;;;;22.27;10.43;;;;;;;7.12;87.26;101778.53;5078838;28;20086;-77
2022/04/16 06:23:51;;;;;;;21.27;10.07;;;;;;;7.10;87.26;101787.72;5073982;28;20039;-74
2022/04/16 06:26:17;;;;;;;23.58;9.57;;;;;;;7.28;86.79;101780.56;5073130;28;20031;-75
2022/04/16 06:28:42;;;;;;;24.20;10.85;;;;;;;7.35;86.13;101778.09;5055146;28;20024;-74
2022/04/16 06:31:07;;;;;;;21.20;10.23;;;;;;;7.38;85.71;101781.34;5072670;28;20037;-75
2022/04/16 06:33:33;;;;;;;21.47;10.40;;;;;;;7.42;84.92;101781.88;5072769;28;20468;-75
2022/04/16 06:35:58;;;;;;;22.40;9.27;;;;;;;7.50;84.76;101790.03;5072624;28;20086;-74
2022/04/16 06:38:24;;;;;;;17.67;8.30;;;;;;;7.55;84.64;101783.19;5072798;28;20052;-74
2022/04/16 06:40:49;;;;;;;20.05;9.40;;;;;;;7.54;83.91;101783.34;5072480;28;20043;-74
2022/04/16 06:43:14;;;;;;;21.60;8.70;;;;;;;7.66;83.38;101782.16;5072413;28;20028;-74
2022/04/16 06:45:40;;;;;;;16.33;8.38;;;;;;;7.75;82.85;101780.38;5072878;28;20029;-74
2022/04/16 06:48:06;;;;;;;17.67;8.18;;;;;;;7.97;82.69;101783.44;5073250;28;20093;-75
2022/04/16 06:50:31;;;;;;;21.85;9.45;;;;;;;7.80;82.54;101781.59;5072304;28;20092;-74
2022/04/16 06:52:56;;;;;;;21.53;9.17;;;;;;;8.12;81.98;101772.97;5075462;28;20044;-74
2022/04/16 06:55:22;;;;;;;17.40;8.60;;;;;;;8.65;79.91;101778.25;5076381;28;20024;-74
2022/04/16 06:57:47;;;;;;;19.92;8.73;;;;;;;8.94;78.53;101787.81;5075617;28;20024;-74
2022/04/16 07:00:13;;;;;;;17.40;8.17;;;;;;;8.84;78.26;101787.06;5076149;28;20025;-74
2022/04/16 07:02:39;;;;;;;17.08;8.10;;;;;;;8.46;78.99;101791.03;5075977;28;20025;-75
2022/04/16 07:05:05;;;;;;;15.13;7.72;;;;;;;8.63;78.68;101790.97;5076050;28;20067;-74
2022/04/16 07:07:31;;;;;;;16.77;7.30;;;;;;;8.55;78.34;101784.72;5075814;28;20036;-74
2022/04/16 07:09:57;;;;;;;14.95;6.50;;;;;;;8.69;78.12;101789.50;5075956;28;20536;-75
2022/04/16 07:12:22;;;;;;;14.00;7.05;;;;;;;8.57;78.40;101786.25;5075955;28;20040;-74
2022/04/16 07:14:47;;;;;;;19.35;7.28;;;;;;;8.69;77.89;101778.75;5057876;28;20025;-74
2022/04/16 07:17:13;;;;;;;13.87;6.30;;;;;;;8.76;77.62;101784.34;5075620;28;20032;-74
2022/04/16 07:19:38;;;;;;;14.85;6.10;;;;;;;8.43;77.51;101789.50;5075549;28;20308;-74
2022/04/16 07:22:04;;;;;;;16.57;6.70;;;;;;;8.43;77.98;101777.91;5075691;28;20029;-74
2022/04/16 07:24:30;;;;;;;14.43;5.97;;;;;;;8.63;77.88;101787.44;5075875;28;20078;-75
2022/04/16 07:26:55;;;;;;;;;;;;;;;8.62;77.99;101788.44;5075996;28;20111;-75
2022/04/16 07:29:22;;;;;;;15.53;6.17;;;;;;;8.72;76.50;101785.66;5075463;28;20031;-75
2022/04/16 07:31:48;;;;;;;14.30;6.05;;;;;;;8.68;75.98;101777.91;5075319;28;20294;-74
2022/04/16 07:34:13;;;;;;;14.98;6.30;;;;;;;8.90;75.85;101778.38;5075400;28;20090;-75
2022/04/16 07:36:41;;;;;;;14.10;6.35;;;;;;;9.02;76.00;101785.97;5075247;28;20039;-75
2022/04/16 07:39:06;;;;;;;17.05;6.72;;;;;;;9.24;74.60;101781.88;5075661;28;20047;-75
2022/04/16 07:41:31;;;;;;;12.52;6.20;;;;;;;9.23;74.14;101782.03;5075459;28;20025;-75
2022/04/16 07:44:02;;;;;;;13.57;6.27;;;;;;;9.29;73.89;101774.16;5075587;28;20054;-75
2022/04/16 07:46:32;;;;;;;11.88;6.47;;;;;;;9.19;74.07;101777.97;5075277;28;20021;-75
2022/04/16 07:48:58;;;;;;;15.02;6.85;;;;;;;9.45;73.60;101777.91;5075199;28;20024;-77
2022/04/16 07:51:25;;;;;;;12.98;5.93;;;;;;;9.54;72.61;101774.19;5074875;28;20491;-75
2022/04/16 07:53:52;;;;;;;13.65;5.50;;;;;;;9.75;72.17;101770.03;5075346;28;20032;-75
2022/04/16 07:56:17;;;;;;;13.52;5.68;;;;;;;9.89;71.99;101778.47;5056920;28;20044;-75
2022/04/16 07:58:42;;;;;;;13.50;6.07;;;;;;;9.62;71.30;101776.94;5074928;28;20025;-75
2022/04/16 08:01:08;;;;;;;15.73;6.50;;;;;;;9.78;71.32;101781.47;5075551;28;20040;-75
2022/04/16 08:03:34;;;;;;;11.93;4.95;;;;;;;9.64;70.92;101785.69;5074627;28;20044;-75
2022/04/16 08:05:59;;;;;;;12.18;5.90;;;;;;;9.86;70.79;101779.63;5057705;28;20032;-75
2022/04/16 08:08:25;;;;;;;16.93;6.67;;;;;;;9.96;71.04;101784.88;5075039;28;20371;-75
2022/04/16 08:10:52;;;;;;;14.48;5.60;;;;;;;9.95;70.49;101789.41;5057040;28;20104;-76
2022/04/16 08:13:20;;;;;;;11.50;5.35;;;;;;;9.71;70.47;101792.06;5074714;28;20109;-76
2022/04/16 08:15:46;;;;;;;11.45;5.47;;;;;;;9.93;69.82;101779.81;5074497;28;20102;-75
2022/04/16 08:18:12;;;;;;;13.18;5.47;;;;;;;9.78;69.42;101795.78;5075562;28;20079;-74
2022/04/16 08:20:38;;;;;;;12.68;5.88;;;;;;;9.67;69.78;101793.44;5074803;28;20060;-75
2022/04/16 08:23:06;;;;;;;10.43;5.15;;;;;;;9.99;68.02;101788.06;5074844;28;20519;-74
2022/04/16 08:28:03;;;;;;;9.75;4.85;;;;;;;10.01;66.46;101796.00;5074650;28;20115;-75
2022/04/16 08:30:29;;;;;;;12.20;5.15;;;;;;;10.04;66.73;101798.31;5056447;28;20120;-75
2022/04/16 08:32:55;;;;;;;12.48;5.10;;;;;;;10.21;66.68;101789.25;5056682;28;20360;-75
2022/04/16 08:35:21;;;;;;;12.05;5.38;;;;;;;10.21;65.78;101786.56;5074586;28;20371;-75
2022/04/16 08:37:48;;;;;;;9.23;4.72;;;;;;;10.38;66.88;101798.19;5056574;28;20138;-75
2022/04/16 08:40:15;;;;;;;13.18;5.07;;;;;;;10.68;65.96;101788.53;5056513;28;20407;-75
2022/04/16 08:42:43;;;;;;;10.77;4.95;;;;;;;10.90;62.95;101800.44;5074252;28;20025;-76
2022/04/16 08:45:10;;;;;;;10.32;4.63;;;;;;;10.52;63.79;101792.09;5074181;28;20119;-75
2022/04/16 08:47:38;;;;;;;10.68;4.35;;;;;;;10.65;62.78;101787.00;5040073;28;20093;-76
2022/04/16 08:50:05;;;;;;;8.75;4.25;;;;;;;11.07;61.61;101800.22;5074007;28;20055;-75
2022/04/16 08:52:33;;;;;;;10.45;4.43;;;;;;;11.11;61.41;101792.59;5073732;28;20032;-75
2022/04/16 08:55:00;;;;;;;10.32;4.68;;;;;;;11.37;60.45;101800.41;5073960;28;20021;-74
2022/04/16 08:57:26;;;;;;;8.77;3.75;;;;;;;11.19;59.24;101806.06;5056115;28;20036;-74
2022/04/16 08:59:54;;;;;;;9.48;3.47;;;;;;;10.90;59.27;101793.19;5056191;28;20028;-74
2022/04/16 09:02:22;;;;;;;8.70;3.90;;;;;;;10.91;59.91;101805.66;5074150;28;20059;-76
2022/04/16 09:04:49;;;;;;;11.13;4.53;;;;;;;11.01;59.69;101800.06;5056225;28;20123;-75
2022/04/16 09:07:15;;;;;;;6.65;3.38;;;;;;;11.31;57.35;101803.78;5073648;28;20074;-74
2022/04/16 09:09:42;;;;;;;6.65;3.00;;;;;;;11.19;56.52;101797.97;5073718;28;20036;-74
2022/04/16 09:12:17;;;;;;;;;;;;;;;11.36;55.33;101807.66;5074071;28;20081;-75
2022/04/16 09:14:44;;;;;;;8.98;3.58;;;;;;;11.41;55.66;101797.19;5072683;28;19908;-75
2022/04/16 09:17:17;;;;;;;6.55;2.60;;;;;;;11.17;56.24;101804.53;5073626;28;20388;-78
2022/04/16 09:19:51;;;;;;;5.90;2.38;;;;;;;11.24;54.37;101797.44;5073741;28;20028;-74
2022/04/16 09:22:30;;;;;;;6.10;2.83;;;;;;;11.37;55.21;101798.53;5073433;28;20036;-75
2022/04/16 09:24:55;;;;;;;8.75;3.13;;;;;;;11.61;55.17;101804.84;5073362;28;20493;-75
2022/04/16 09:27:21;;;;;;;8.48;3.63;;;;;;;11.52;55.78;101803.19;5055754;28;20021;-74
2022/04/16 09:29:46;;;;;;;6.60;3.08;;;;;;;11.68;56.32;101808.47;5073712;28;20151;-74
2022/04/16 09:32:24;;;;;;;6.45;3.05;;;;;;;11.51;56.03;101813.13;5056207;28;20039;-74
2022/04/16 09:34:53;;;;;;;7.53;3.30;;;;;;;11.26;55.98;101803.50;5055845;28;20036;-74
2022/04/16 09:37:24;;;;;;;8.45;3.33;;;;;;;11.47;55.52;101801.84;5073983;28;20463;-74
2022/04/16 09:39:49;;;;;;;7.55;2.78;;;;;;;11.57;54.47;101815.16;5056398;28;20037;-75
2022/04/16 09:42:27;;;;;;;6.23;2.47;;;;;;;11.56;53.51;101813.47;5074757;28;20074;-74
2022/04/16 09:44:53;;;;;;;8.57;3.15;;;;;;;11.26;56.13;101807.03;5055582;28;20830;-75
2022/04/16 09:47:23;;;;;;;7.93;3.20;;;;;;;11.56;55.46;101813.47;5055795;28;20020;-74
2022/04/16 09:49:52;;;;;;;6.88;3.15;;;;;;;11.91;54.57;101806.69;5073844;28;20056;-74
2022/04/16 09:52:21;;;;;;;8.05;3.42;;;;;;;12.28;53.05;101807.75;5074280;28;20055;-77
2022/04/16 09:54:50;;;;;;;6.93;3.30;;;;;;;12.07;53.40;101816.53;5074261;28;20029;-75
2022/04/16 09:57:19;;;;;;;7.90;3.60;;;;;;;11.44;53.88;101818.44;5074832;28;20033;-74
2022/04/16 09:59:48;;;;;;;7.65;2.42;;;;;;;11.28;53.19;101814.97;5075012;28;20036;-74
2022/04/16 10:02:15;;;;;;;8.40;3.35;;;;;;;11.53;54.25;101812.97;5073963;28;20475;-75
2022/04/16 10:04:41;;;;;;;6.72;3.22;;;;;;;11.80;53.75;101807.94;5055626;28;20055;-74
2022/04/16 10:07:06;;;;;;;9.32;4.18;;;;;;;11.92;54.51;101808.38;5073317;28;20471;-74
2022/04/16 10:09:35;;;;;;;6.88;4.10;;;;;;;11.55;54.17;101800.97;5073174;28;20071;-74
2022/04/16 10:15:05;;;;;;;8.70;4.07;;;;;;;11.86;53.81;101806.38;5073021;28;20028;-76
2022/04/16 10:17:50;;;;;;;8.60;4.15;;;;;;;11.82;54.32;101800.47;5055130;28;20043;-74
2022/04/16 10:20:18;;;;;;;8.10;3.90;;;;;;;11.74;53.27;101797.81;5072900;28;20036;-74
2022/04/16 10:23:03;;;;;;;9.27;3.70;;;;;;;11.80;54.68;101799.00;5055130;28;20021;-74
2022/04/16 10:25:40;;;;;;;7.93;3.45;;;;;;;12.10;53.75;101794.56;5073029;28;20051;-75
2022/04/16 10:28:07;;;;;;;9.50;3.45;;;;;;;11.94;54.04;101794.69;5076460;28;20025;-76
2022/04/16 10:30:40;;;;;;;8.23;3.80;;;;;;;12.08;53.54;101802.84;5076379;28;20060;-75
2022/04/16 10:33:17;;;;;;;7.13;2.83;;;;;;;11.86;53.38;101802.81;5076361;28;20032;-73
2022/04/16 10:35:59;;;;;;;8.48;3.35;;;;;;;12.33;50.91;101799.94;5076441;28;20056;-74
2022/04/16 10:38:31;;;;;;;6.75;3.10;;;;;;;12.27;50.59;101792.53;5076658;28;20421;-75
2022/04/16 10:40:57;;;;;;;7.90;3.80;;;;;;;12.54;51.30;101789.22;5076268;28;20089;-74
2022/04/16 10:43:30;;;;;;;7.68;3.17;;;;;;;12.44;51.47;101794.06;5076338;28;20379;-75
2022/04/16 10:46:07;;;;;;;7.60;3.25;;;;;;;12.06;51.78;101794.06;5076227;28;20111;-75
2022/04/16 10:48:37;;;;;;;7.75;3.45;;;;;;;11.77;52.50;101780.47;5076402;28;20070;-75
2022/04/16 10:51:04;;;;;;;7.43;3.67;;;;;;;11.96;51.98;101779.13;5058393;28;20120;-74
2022/04/16 10:53:34;;;;;;;8.35;3.63;;;;;;;12.36;51.61;101786.88;5076306;28;20040;-74
2022/04/16 10:56:11;;;;;;;7.22;3.47;;;;;;;12.27;50.65;101795.25;5076342;28;20039;-74
2022/04/16 10:58:39;;;;;;;6.93;3.30;;;;;;;12.39;50.49;101797.31;5075922;28;20050;-74
2022/04/16 11:01:10;;;;;;;5.65;2.92;;;;;;;12.21;51.04;101794.09;5076660;28;20463;-76
2022/04/16 11:03:46;;;;;;;7.97;3.25;;;;;;;12.31;50.43;101785.75;5076799;28;20024;-77
2022/04/16 11:06:12;;;;;;;;;;;;;;;12.63;50.24;101790.84;5058882;28;20025;-77
2022/04/16 11:08:39;;;;;;;6.82;2.85;;;;;;;12.56;49.49;101786.34;5076137;28;20267;-77
2022/04/16 11:11:04;;;;;;;5.80;2.80;;;;;;;12.70;49.18;101785.53;5076796;28;20093;-77
2022/04/16 11:13:31;;;;;;;7.70;3.22;;;;;;;12.99;48.57;101782.81;5076214;28;20028;-76
2022/04/16 11:16:01;;;;;;;6.82;2.80;;;;;;;13.10;48.24;101787.75;5075837;28;20502;-76
2022/04/16 11:18:38;;;;;;;4.88;2.53;;;;;;;13.10;48.04;101786.91;5075718;28;20028;-76
2022/04/16 11:21:12;;;;;;;6.28;2.60;;;;;;;12.98;47.60;101778.44;5075618;28;20040;-77
2022/04/16 11:23:44;;;;;;;5.72;2.42;;;;;;;12.90;47.46;101764.19;5075672;28;20028;-75
2022/04/16 11:34:40;;;;;;;7.43;2.60;;;;;;;13.26;45.71;101773.19;5075723;28;20028;-76
2022/04/16 11:37:07;;;;;;;5.97;2.47;;;;;;;13.55;45.43;101767.72;5074912;28;20036;-76
2022/04/16 11:39:34;;;;;;;5.53;2.47;;;;;;;13.12;44.52;101771.34;5075024;28;20035;-76
2022/04/16 11:42:02;;;;;;;5.60;2.33;;;;;;;13.17;44.76;101760.81;5075483;28;20379;-75
2022/04/16 11:44:38;;;;;;;4.53;2.00;;;;;;;13.29;44.31;101762.00;5075435;28;20414;-75
2022/04/16 11:47:13;;;;;;;4.68;2.42;;;;;;;13.38;43.98;101760.03;5075370;28;20074;-76